Archival Weather

Chicago O'Hare International

Chicago, Illinois (KORD)

Report from: Monday, January 23, 2023 9:29 PM CST
Current time: Thursday, July 18, 2024 10:27 PM CDT

Current weather – Weather history – Daily summaries
Weather forecast

Temperature-1.7°C (28.9°F)
Wind chill-8.6°C (16.5°F)
Dew point-4.4°C (24.1°F)
Winds 16 kts (8.2 m/s, 18.4 mph) West-Southwest (250°)
Wind gusts 24 kts (12.3 m/s, 27.6 mph)
Peak wind 26 kts (13.4 m/s, 29.9 mph) West-Southwest (250°) at 03:16
Visibility10 mi. (16.1 km)
Clouds Ceiling: Broken clouds 1,800 ft. (549 m)
Broken clouds 4,200 ft. (1,280 m)
Altimeter30.06 in.Hg (1018 mB)
Relative humidity82 %
Density altitude-2,140 ft. (-652 m)
Remarks Automated weather observing station with precipitation discriminator
Flight conditions Marginal Visual Meteorological Conditions
Raw dataKORD 240329Z 25016G24KT 10SM BKN018 BKN042 M02/M04 A3006 RMK AO2 PK WND 25026/0316 T10171044
An error has occurred. This application may no longer respond until reloaded. Reload 🗙